createdAt,value
2022-07-27T00:00:27.256Z,22.5
2022-07-27T00:03:27.230Z,22.4
2022-07-27T00:09:27.225Z,22.4
2022-07-27T00:12:27.259Z,22.4
2022-07-27T00:15:27.234Z,22.4
2022-07-27T00:18:27.230Z,22.3
2022-07-27T00:21:27.234Z,22.3
2022-07-27T00:27:27.224Z,22.3
2022-07-27T00:30:27.266Z,22.3
2022-07-27T00:33:27.224Z,22.3
2022-07-27T00:36:27.232Z,22.3
2022-07-27T00:39:27.242Z,22.3
2022-07-27T00:42:27.221Z,22.3
2022-07-27T00:45:27.230Z,22.2
2022-07-27T00:48:27.278Z,22.2
2022-07-27T00:51:27.252Z,22.2
2022-07-27T00:54:27.243Z,22.2
2022-07-27T00:57:27.233Z,22.2
2022-07-27T01:03:29.425Z,22.2
2022-07-27T01:06:27.487Z,22.2
2022-07-27T01:09:27.227Z,22.1
2022-07-27T01:12:27.244Z,22.1
2022-07-27T01:15:27.254Z,22.1
2022-07-27T01:18:27.250Z,22.1
2022-07-27T01:21:27.254Z,22
2022-07-27T01:24:27.251Z,22
2022-07-27T01:27:27.236Z,22
2022-07-27T01:30:27.239Z,22
2022-07-27T01:33:27.237Z,22
2022-07-27T01:36:27.248Z,22
2022-07-27T01:39:27.250Z,21.9
2022-07-27T01:42:27.237Z,21.9
2022-07-27T01:45:27.224Z,21.9
2022-07-27T01:48:27.234Z,21.9
2022-07-27T01:51:27.239Z,21.9
2022-07-27T01:54:27.237Z,21.9
2022-07-27T01:57:27.238Z,21.8
2022-07-27T02:00:27.244Z,21.8
2022-07-27T02:03:27.263Z,21.8
2022-07-27T02:06:27.239Z,21.8
2022-07-27T02:09:27.231Z,21.8
2022-07-27T02:12:27.229Z,21.8
2022-07-27T02:15:27.240Z,21.7
2022-07-27T02:18:32.913Z,21.7
2022-07-27T02:21:27.231Z,21.7
2022-07-27T02:24:27.228Z,21.7
2022-07-27T02:27:27.241Z,21.7
2022-07-27T02:30:27.238Z,21.6
2022-07-27T02:36:27.242Z,21.6
2022-07-27T02:39:27.238Z,21.6
2022-07-27T02:42:27.229Z,21.5
2022-07-27T02:45:27.229Z,21.5
2022-07-27T02:48:27.231Z,21.5
2022-07-27T02:51:27.240Z,21.5
2022-07-27T02:54:27.231Z,21.5
2022-07-27T02:57:27.229Z,21.5
2022-07-27T03:00:27.233Z,21.4
2022-07-27T03:03:32.997Z,21.4
2022-07-27T03:06:27.231Z,21.4
2022-07-27T03:09:31.423Z,21.4
2022-07-27T03:12:27.233Z,21.4
2022-07-27T03:15:27.414Z,21.4
2022-07-27T03:18:27.228Z,21.4
2022-07-27T03:21:27.226Z,21.3
2022-07-27T03:24:27.236Z,21.3
2022-07-27T03:27:27.248Z,21.3
2022-07-27T03:30:27.233Z,21.3
2022-07-27T03:33:27.230Z,21.3
2022-07-27T03:36:27.230Z,21.3
2022-07-27T03:39:27.238Z,21.2
2022-07-27T03:42:27.226Z,21.2
2022-07-27T03:45:27.231Z,21.2
2022-07-27T03:48:27.230Z,21.1
2022-07-27T03:54:27.239Z,21.1
2022-07-27T03:57:27.235Z,21.1
2022-07-27T04:00:27.229Z,21.1
2022-07-27T04:03:27.235Z,21.1
2022-07-27T04:06:27.232Z,21
2022-07-27T04:09:27.234Z,21
2022-07-27T04:12:27.232Z,21
2022-07-27T04:15:27.234Z,21
2022-07-27T04:18:27.234Z,21
2022-07-27T04:21:27.677Z,21
2022-07-27T04:24:27.236Z,20.9
2022-07-27T04:27:27.239Z,20.9
2022-07-27T04:30:27.287Z,20.9
2022-07-27T04:33:27.242Z,20.9
2022-07-27T04:36:27.237Z,20.9
2022-07-27T04:39:27.237Z,20.9
2022-07-27T04:42:27.249Z,20.9
2022-07-27T04:45:27.243Z,20.9
2022-07-27T04:48:27.247Z,20.9
2022-07-27T04:51:30.028Z,20.8
2022-07-27T04:54:27.255Z,20.8
2022-07-27T04:57:27.242Z,20.8
2022-07-27T05:00:27.257Z,20.8
2022-07-27T05:03:27.243Z,20.8
2022-07-27T05:06:27.272Z,20.8
2022-07-27T05:09:27.250Z,20.8
2022-07-27T05:12:27.282Z,20.8
2022-07-27T05:15:27.247Z,20.8
2022-07-27T05:18:27.257Z,20.8
2022-07-27T05:21:27.301Z,20.8
2022-07-27T05:24:27.261Z,20.8
2022-07-27T05:27:27.306Z,20.8
2022-07-27T05:30:27.267Z,20.8
2022-07-27T05:33:27.270Z,20.8
2022-07-27T05:36:27.276Z,20.8
2022-07-27T05:39:27.263Z,20.7
2022-07-27T05:42:27.305Z,20.7
2022-07-27T05:45:27.296Z,20.7
2022-07-27T05:48:27.268Z,20.7
2022-07-27T05:51:27.275Z,20.8
2022-07-27T05:57:27.272Z,20.8
2022-07-27T06:00:27.277Z,20.8
2022-07-27T06:03:27.354Z,20.8
2022-07-27T06:09:27.272Z,20.8
2022-07-27T06:12:29.907Z,20.8
2022-07-27T06:15:27.278Z,20.8
2022-07-27T06:18:27.278Z,20.8
2022-07-27T06:21:27.275Z,20.8
2022-07-27T06:24:27.281Z,20.9
2022-07-27T06:27:29.529Z,21
2022-07-27T06:33:27.280Z,21
2022-07-27T06:36:27.281Z,21.1
2022-07-27T06:39:27.277Z,21.1
2022-07-27T06:42:27.296Z,21.1
2022-07-27T06:45:27.282Z,21.1
2022-07-27T06:48:27.300Z,21.1
2022-07-27T06:51:27.288Z,21.1
2022-07-27T06:54:27.287Z,21.1
2022-07-27T06:57:27.291Z,21.2
2022-07-27T07:00:27.420Z,21.3
2022-07-27T07:03:27.341Z,21.3
2022-07-27T07:06:27.325Z,21.3
2022-07-27T07:09:27.323Z,21.4
2022-07-27T07:15:27.348Z,21.5
2022-07-27T07:18:27.328Z,21.5
2022-07-27T07:21:27.311Z,21.5
2022-07-27T07:24:27.319Z,21.5
2022-07-27T07:27:27.326Z,21.5
2022-07-27T07:30:27.308Z,21.5
2022-07-27T07:33:27.323Z,21.5
2022-07-27T07:36:27.327Z,21.5
2022-07-27T07:39:31.268Z,21.6
2022-07-27T07:42:27.317Z,21.6
2022-07-27T07:45:27.328Z,21.7
2022-07-27T07:48:27.327Z,21.8
2022-07-27T07:51:27.329Z,21.8
2022-07-27T07:54:27.310Z,21.9
2022-07-27T07:57:27.335Z,22.1
2022-07-27T08:00:27.306Z,22.1
2022-07-27T08:03:27.364Z,22.3
2022-07-27T08:06:27.319Z,22.4
2022-07-27T08:09:27.310Z,22.5
2022-07-27T08:12:27.344Z,22.6
2022-07-27T08:15:30.184Z,22.9
2022-07-27T08:18:27.333Z,23
2022-07-27T08:21:27.315Z,23.2
2022-07-27T08:24:27.336Z,23.4
2022-07-27T08:27:27.336Z,23.5
2022-07-27T08:30:27.332Z,23.6
2022-07-27T08:33:27.318Z,23.8
2022-07-27T08:36:27.327Z,24
2022-07-27T08:39:52.892Z,24.1
2022-07-27T08:42:27.327Z,24.2
2022-07-27T08:45:27.335Z,24.3
2022-07-27T08:48:27.343Z,24.4
2022-07-27T08:51:27.334Z,24.5
2022-07-27T08:54:27.332Z,24.5
2022-07-27T08:57:27.327Z,24.6
2022-07-27T09:00:27.324Z,24.8
2022-07-27T09:03:27.402Z,25.1
2022-07-27T09:06:27.330Z,25.3
2022-07-27T09:09:27.342Z,25.5
2022-07-27T09:12:27.322Z,25.7
2022-07-27T09:15:34.090Z,25.7
2022-07-27T09:18:27.384Z,26
2022-07-27T09:21:27.320Z,26.2
2022-07-27T09:24:45.994Z,26.2
2022-07-27T09:27:27.325Z,26.2
2022-07-27T09:30:27.330Z,26.1
2022-07-27T09:33:27.327Z,26
2022-07-27T09:36:27.334Z,26
2022-07-27T09:39:27.328Z,25.8
2022-07-27T09:43:03.996Z,25.7
2022-07-27T09:45:27.335Z,25.7
2022-07-27T09:48:27.343Z,25.6
2022-07-27T09:51:58.618Z,25.6
2022-07-27T09:54:27.358Z,25.6
2022-07-27T09:57:27.363Z,25.6
2022-07-27T10:00:27.423Z,25.6
2022-07-27T10:03:27.349Z,25.5
2022-07-27T10:06:27.366Z,25.5
2022-07-27T10:09:27.349Z,25.5
2022-07-27T10:12:27.349Z,25.5
2022-07-27T10:15:27.479Z,25.4
2022-07-27T10:18:27.352Z,25.3
2022-07-27T10:21:27.354Z,25.3
2022-07-27T10:24:27.363Z,25.3
2022-07-27T10:27:27.369Z,25.3
2022-07-27T10:30:27.776Z,25.4
2022-07-27T10:33:27.353Z,25.5
2022-07-27T10:36:27.370Z,25.7
2022-07-27T10:39:27.348Z,25.8
2022-07-27T10:42:27.408Z,25.9
2022-07-27T10:45:27.359Z,26.2
2022-07-27T10:48:27.372Z,26.2
2022-07-27T10:51:27.394Z,26
2022-07-27T10:54:27.770Z,25.7
2022-07-27T10:57:27.355Z,25.5
2022-07-27T11:00:27.357Z,25.3
2022-07-27T11:03:27.363Z,25
2022-07-27T11:06:34.951Z,24.9
2022-07-27T11:12:27.368Z,24.8
2022-07-27T11:15:27.364Z,24.7
2022-07-27T11:21:27.373Z,24.6
2022-07-27T11:24:27.373Z,24.6
2022-07-27T11:27:27.384Z,24.5
2022-07-27T11:30:27.595Z,24.5
2022-07-27T11:33:27.370Z,24.5
2022-07-27T11:36:27.361Z,24.5
2022-07-27T11:39:54.647Z,24.4
2022-07-27T11:42:27.393Z,24.4
2022-07-27T11:45:27.361Z,24.4
2022-07-27T11:48:39.081Z,24.3
2022-07-27T11:51:27.359Z,24.3
2022-07-27T11:54:27.372Z,24.2
2022-07-27T11:57:27.360Z,24.2
2022-07-27T12:00:27.356Z,24.2
2022-07-27T12:03:45.765Z,24.3
2022-07-27T12:06:27.372Z,24.3
2022-07-27T12:09:27.359Z,24.4
2022-07-27T12:12:27.370Z,24.5
2022-07-27T12:15:45.011Z,24.5
2022-07-27T12:18:27.366Z,24.5
2022-07-27T12:21:27.364Z,24.6
2022-07-27T12:24:27.366Z,24.6
2022-07-27T12:27:27.359Z,24.6
2022-07-27T12:30:27.390Z,24.6
2022-07-27T12:33:27.363Z,24.6
2022-07-27T12:36:27.362Z,24.5
2022-07-27T12:39:27.361Z,24.5
2022-07-27T12:42:27.377Z,24.5
2022-07-27T12:48:27.371Z,24.4
2022-07-27T12:51:27.375Z,24.4
2022-07-27T12:54:27.366Z,24.3
2022-07-27T12:57:46.568Z,24.3
2022-07-27T13:00:32.787Z,24.3
2022-07-27T13:03:27.363Z,24.2
2022-07-27T13:06:27.367Z,24.3
2022-07-27T13:10:01.655Z,24.3
2022-07-27T13:12:27.404Z,24.4
2022-07-27T13:15:27.373Z,24.4
2022-07-27T13:18:27.391Z,24.4
2022-07-27T13:21:27.695Z,24.4
2022-07-27T13:24:27.403Z,24.4
2022-07-27T13:27:27.373Z,24.4
2022-07-27T13:30:27.368Z,24.4
2022-07-27T13:33:27.375Z,24.5
2022-07-27T13:36:27.368Z,24.5
2022-07-27T13:39:27.368Z,24.5
2022-07-27T13:42:27.394Z,24.6
2022-07-27T13:45:27.469Z,24.6
2022-07-27T13:48:27.377Z,24.6
2022-07-27T13:51:27.385Z,24.6
2022-07-27T13:54:27.400Z,24.6
2022-07-27T13:57:27.402Z,24.7
2022-07-27T14:00:27.385Z,24.7
2022-07-27T14:03:27.385Z,24.7
2022-07-27T14:06:27.383Z,24.8
2022-07-27T14:09:27.392Z,24.8
2022-07-27T14:12:27.421Z,24.8
2022-07-27T14:15:27.406Z,24.8
2022-07-27T14:18:27.400Z,24.8
2022-07-27T14:21:27.385Z,24.9
2022-07-27T14:24:27.430Z,24.9
2022-07-27T14:27:33.641Z,24.9
2022-07-27T14:30:27.388Z,24.9
2022-07-27T14:36:27.448Z,24.9
2022-07-27T14:39:27.387Z,24.9
2022-07-27T14:42:27.740Z,24.9
2022-07-27T14:45:44.149Z,24.9
2022-07-27T14:48:42.433Z,24.9
2022-07-27T14:51:27.407Z,24.9
2022-07-27T14:54:27.391Z,24.9
2022-07-27T14:57:27.394Z,24.8
2022-07-27T15:00:27.448Z,24.8
2022-07-27T15:03:27.405Z,24.8
2022-07-27T15:06:27.412Z,24.8
2022-07-27T15:09:27.411Z,24.8
2022-07-27T15:12:27.464Z,24.8
2022-07-27T15:15:27.413Z,24.8
2022-07-27T15:18:27.408Z,24.8
2022-07-27T15:21:27.436Z,24.8
2022-07-27T15:24:27.415Z,24.8
2022-07-27T15:27:27.422Z,24.8
2022-07-27T15:30:27.414Z,24.8
2022-07-27T15:33:27.429Z,24.8
2022-07-27T15:36:31.701Z,24.8
2022-07-27T15:39:27.430Z,24.8
2022-07-27T15:42:27.432Z,24.8
2022-07-27T15:45:27.433Z,24.8
2022-07-27T15:48:27.434Z,24.8
2022-07-27T15:51:27.417Z,24.8
2022-07-27T15:54:30.161Z,24.8
2022-07-27T15:57:27.431Z,24.8
2022-07-27T16:00:27.459Z,24.8
2022-07-27T16:03:27.532Z,24.7
2022-07-27T16:06:27.437Z,24.7
2022-07-27T16:09:27.435Z,24.7
2022-07-27T16:12:27.421Z,24.6
2022-07-27T16:15:27.437Z,24.6
2022-07-27T16:18:27.430Z,24.6
2022-07-27T16:21:27.441Z,24.5
2022-07-27T16:24:27.423Z,24.5
2022-07-27T16:27:27.434Z,24.5
2022-07-27T16:30:27.438Z,24.5
2022-07-27T16:33:27.428Z,24.5
2022-07-27T16:36:27.440Z,24.4
2022-07-27T16:39:27.424Z,24.4
2022-07-27T16:42:27.415Z,24.4
2022-07-27T16:45:27.441Z,24.4
2022-07-27T16:48:27.443Z,24.4
2022-07-27T16:51:27.438Z,24.4
2022-07-27T16:54:27.417Z,24.3
2022-07-27T16:57:27.416Z,24.3
2022-07-27T17:00:27.420Z,24.3
2022-07-27T17:03:27.416Z,24.3
2022-07-27T17:06:27.419Z,24.3
2022-07-27T17:09:27.429Z,24.2
2022-07-27T17:12:27.429Z,24.2
2022-07-27T17:15:27.414Z,24.2
2022-07-27T17:18:27.446Z,24.2
2022-07-27T17:21:27.426Z,24.1
2022-07-27T17:24:27.446Z,24.1
2022-07-27T17:27:27.426Z,24.1
2022-07-27T17:30:27.450Z,24
2022-07-27T17:33:27.419Z,24
2022-07-27T17:36:27.416Z,24
2022-07-27T17:39:27.424Z,24
2022-07-27T17:42:27.425Z,24
2022-07-27T17:45:27.437Z,23.9
2022-07-27T17:48:27.420Z,23.9
2022-07-27T17:51:27.424Z,23.9
2022-07-27T17:54:27.470Z,23.9
2022-07-27T17:57:27.452Z,23.9
2022-07-27T18:00:27.460Z,23.8
2022-07-27T18:03:27.461Z,23.8
2022-07-27T18:06:27.461Z,23.8
2022-07-27T18:09:27.463Z,23.8
2022-07-27T18:12:27.490Z,23.8
2022-07-27T18:15:27.496Z,23.7
2022-07-27T18:18:27.495Z,23.7
2022-07-27T18:21:27.469Z,23.7
2022-07-27T18:24:27.478Z,23.7
2022-07-27T18:27:27.492Z,23.7
2022-07-27T18:30:27.481Z,23.6
2022-07-27T18:33:27.477Z,23.6
2022-07-27T18:36:27.485Z,23.6
2022-07-27T18:42:27.488Z,23.5
2022-07-27T18:45:34.410Z,23.5
2022-07-27T18:48:27.508Z,23.5
2022-07-27T18:51:27.488Z,23.5
2022-07-27T18:54:27.489Z,23.4
2022-07-27T18:57:27.485Z,23.4
2022-07-27T19:00:27.516Z,23.4
2022-07-27T19:03:27.812Z,23.3
2022-07-27T19:06:27.490Z,23.3
2022-07-27T19:09:27.496Z,23.3
2022-07-27T19:12:27.482Z,23.3
2022-07-27T19:15:27.489Z,23.2
2022-07-27T19:18:27.491Z,23.2
2022-07-27T19:21:27.497Z,23.2
2022-07-27T19:27:27.514Z,23.1
2022-07-27T19:30:27.629Z,23.1
2022-07-27T19:33:27.505Z,23
2022-07-27T19:36:27.501Z,23
2022-07-27T19:39:27.496Z,23
2022-07-27T19:42:27.493Z,22.9
2022-07-27T19:45:27.495Z,22.9
2022-07-27T19:48:27.495Z,22.8
2022-07-27T19:51:27.501Z,22.8
2022-07-27T19:54:27.498Z,22.8
2022-07-27T19:57:27.552Z,22.8
2022-07-27T20:00:27.493Z,22.7
2022-07-27T20:03:27.528Z,22.7
2022-07-27T20:06:27.496Z,22.6
2022-07-27T20:09:27.505Z,22.6
2022-07-27T20:12:27.520Z,22.6
2022-07-27T20:15:27.541Z,22.6
2022-07-27T20:18:27.525Z,22.6
2022-07-27T20:21:27.509Z,22.6
2022-07-27T20:24:27.507Z,22.5
2022-07-27T20:27:27.531Z,22.5
2022-07-27T20:30:27.579Z,22.5
2022-07-27T20:33:31.120Z,22.5
2022-07-27T20:36:27.524Z,22.5
2022-07-27T20:39:27.521Z,22.4
2022-07-27T20:42:27.519Z,22.4
2022-07-27T20:45:27.518Z,22.4
2022-07-27T20:48:27.505Z,22.4
2022-07-27T20:51:27.508Z,22.3
2022-07-27T20:54:29.289Z,22.3
2022-07-27T20:57:27.511Z,22.3
2022-07-27T21:00:29.272Z,22.2
2022-07-27T21:03:27.513Z,22.2
2022-07-27T21:06:27.515Z,22.2
2022-07-27T21:09:27.521Z,22.1
2022-07-27T21:12:27.521Z,22.1
2022-07-27T21:15:33.434Z,22.1
2022-07-27T21:18:27.518Z,22
2022-07-27T21:21:27.889Z,22
2022-07-27T21:24:27.530Z,22
2022-07-27T21:27:27.539Z,22
2022-07-27T21:30:27.530Z,21.9
2022-07-27T21:33:27.559Z,21.9
2022-07-27T21:36:27.596Z,21.9
2022-07-27T21:39:27.529Z,21.8
2022-07-27T21:42:27.533Z,21.8
2022-07-27T21:45:27.581Z,21.7
2022-07-27T21:51:27.529Z,21.7
2022-07-27T21:54:27.531Z,21.7
2022-07-27T21:57:27.527Z,21.6
2022-07-27T22:00:27.531Z,21.6
2022-07-27T22:03:27.527Z,21.6
2022-07-27T22:06:27.534Z,21.6
2022-07-27T22:09:27.529Z,21.6
2022-07-27T22:12:27.543Z,21.5
2022-07-27T22:15:27.539Z,21.5
2022-07-27T22:18:27.537Z,21.5
2022-07-27T22:21:27.532Z,21.5
2022-07-27T22:24:27.536Z,21.4
2022-07-27T22:27:27.532Z,21.4
2022-07-27T22:30:27.545Z,21.4
2022-07-27T22:33:27.544Z,21.4
2022-07-27T22:36:27.536Z,21.4
2022-07-27T22:39:27.545Z,21.3
2022-07-27T22:45:27.578Z,21.3
2022-07-27T22:48:27.547Z,21.3
2022-07-27T22:51:49.081Z,21.3
2022-07-27T22:54:27.540Z,21.2
2022-07-27T22:57:27.538Z,21.2
2022-07-27T23:00:27.591Z,21.2
2022-07-27T23:03:27.536Z,21.2
2022-07-27T23:06:27.536Z,21.2
2022-07-27T23:09:27.583Z,21.1
2022-07-27T23:12:27.542Z,21.1
2022-07-27T23:15:27.543Z,21.1
2022-07-27T23:18:27.542Z,21.1
2022-07-27T23:21:27.543Z,21
2022-07-27T23:24:29.009Z,21
2022-07-27T23:27:27.541Z,21
2022-07-27T23:30:27.546Z,21
2022-07-27T23:33:27.542Z,21
2022-07-27T23:36:27.560Z,20.9
2022-07-27T23:39:27.548Z,20.9
2022-07-27T23:42:27.563Z,20.9
2022-07-27T23:45:27.544Z,20.9
2022-07-27T23:48:28.632Z,20.8
2022-07-27T23:51:27.551Z,20.8
2022-07-27T23:54:27.548Z,20.8
